sensor_id;sensor_type;location;lat;lon;timestamp;pressure;altitude;pressure_sealevel;temperature;humidity
3968;BME280;9221;42.646;23.380;2022-08-20T00:01:32;94202.31;;;25.94;53.43
3968;BME280;9221;42.646;23.380;2022-08-20T00:03:57;94167.50;;;25.71;53.71
3968;BME280;9221;42.646;23.380;2022-08-20T00:06:23;94214.94;;;26.11;53.50
3968;BME280;9221;42.646;23.380;2022-08-20T00:08:48;94149.91;;;25.68;53.71
3968;BME280;9221;42.646;23.380;2022-08-20T00:11:18;94241.66;;;26.07;53.88
3968;BME280;9221;42.646;23.380;2022-08-20T00:13:48;94218.44;;;25.84;54.84
3968;BME280;9221;42.646;23.380;2022-08-20T00:16:15;94245.47;;;25.62;55.13
3968;BME280;9221;42.646;23.380;2022-08-20T00:18:41;94216.38;;;25.69;55.01
3968;BME280;9221;42.646;23.380;2022-08-20T00:21:09;94181.84;;;25.44;55.39
3968;BME280;9221;42.646;23.380;2022-08-20T00:23:40;94249.59;;;25.70;55.12
3968;BME280;9221;42.646;23.380;2022-08-20T00:26:06;94200.97;;;25.70;55.10
3968;BME280;9221;42.646;23.380;2022-08-20T00:28:33;94197.13;;;25.88;54.35
3968;BME280;9221;42.646;23.380;2022-08-20T00:31:02;94209.66;;;25.99;54.61
3968;BME280;9221;42.646;23.380;2022-08-20T00:33:28;94197.94;;;25.88;54.39
3968;BME280;9221;42.646;23.380;2022-08-20T00:35:55;94188.91;;;25.50;54.73
3968;BME280;9221;42.646;23.380;2022-08-20T00:38:21;94200.19;;;25.69;55.14
3968;BME280;9221;42.646;23.380;2022-08-20T00:40:51;94238.41;;;25.83;55.08
3968;BME280;9221;42.646;23.380;2022-08-20T00:46:05;94199.97;;;25.76;55.02
3968;BME280;9221;42.646;23.380;2022-08-20T00:48:33;94218.09;;;25.53;56.06
3968;BME280;9221;42.646;23.380;2022-08-20T00:54:02;94217.09;;;25.59;56.24
3968;BME280;9221;42.646;23.380;2022-08-20T00:56:30;94209.97;;;25.48;57.01
3968;BME280;9221;42.646;23.380;2022-08-20T00:58:58;94143.94;;;24.89;57.52
3968;BME280;9221;42.646;23.380;2022-08-20T01:01:24;94208.69;;;25.33;57.63
3968;BME280;9221;42.646;23.380;2022-08-20T01:03:49;94145.28;;;25.14;56.92
3968;BME280;9221;42.646;23.380;2022-08-20T01:06:17;94193.53;;;25.10;57.59
3968;BME280;9221;42.646;23.380;2022-08-20T01:08:43;94193.63;;;24.93;58.55
3968;BME280;9221;42.646;23.380;2022-08-20T01:11:08;94147.81;;;24.59;58.90
3968;BME280;9221;42.646;23.380;2022-08-20T01:13:36;94191.03;;;24.81;59.12
3968;BME280;9221;42.646;23.380;2022-08-20T01:16:03;94215.66;;;24.90;59.06
3968;BME280;9221;42.646;23.380;2022-08-20T01:18:35;94135.31;;;24.53;58.94
3968;BME280;9221;42.646;23.380;2022-08-20T01:21:02;94209.13;;;24.86;58.98
3968;BME280;9221;42.646;23.380;2022-08-20T01:26:07;94165.72;;;24.88;58.92
3968;BME280;9221;42.646;23.380;2022-08-20T01:31:04;94208.94;;;24.71;59.86
3968;BME280;9221;42.646;23.380;2022-08-20T01:33:30;94195.50;;;24.59;59.92
3968;BME280;9221;42.646;23.380;2022-08-20T01:35:56;94186.63;;;24.58;60.38
3968;BME280;9221;42.646;23.380;2022-08-20T01:38:22;94197.91;;;24.55;60.55
3968;BME280;9221;42.646;23.380;2022-08-20T01:43:16;94179.09;;;24.60;60.11
3968;BME280;9221;42.646;23.380;2022-08-20T01:45:42;94234.09;;;24.59;60.43
3968;BME280;9221;42.646;23.380;2022-08-20T01:48:07;94164.59;;;24.44;60.11
3968;BME280;9221;42.646;23.380;2022-08-20T01:50:34;94174.31;;;24.62;60.12
3968;BME280;9221;42.646;23.380;2022-08-20T01:53:38;94174.50;;;24.78;59.75
3968;BME280;9221;42.646;23.380;2022-08-20T01:56:09;94209.28;;;24.74;59.59
3968;BME280;9221;42.646;23.380;2022-08-20T01:58:39;94129.28;;;24.63;59.29
3968;BME280;9221;42.646;23.380;2022-08-20T02:01:16;94144.84;;;24.78;59.21
3968;BME280;9221;42.646;23.380;2022-08-20T02:03:42;94125.16;;;24.60;59.37
3968;BME280;9221;42.646;23.380;2022-08-20T02:06:08;94158.84;;;24.75;59.33
3968;BME280;9221;42.646;23.380;2022-08-20T02:08:34;94162.47;;;24.63;60.05
3968;BME280;9221;42.646;23.380;2022-08-20T02:11:00;94161.31;;;24.59;61.00
3968;BME280;9221;42.646;23.380;2022-08-20T02:13:25;94092.91;;;24.26;60.59
3968;BME280;9221;42.646;23.380;2022-08-20T02:15:51;94130.66;;;24.26;60.69
3968;BME280;9221;42.646;23.380;2022-08-20T02:18:16;94126.16;;;24.15;61.49
3968;BME280;9221;42.646;23.380;2022-08-20T02:20:43;94164.59;;;24.27;61.66
3968;BME280;9221;42.646;23.380;2022-08-20T02:23:09;94109.25;;;24.03;61.45
3968;BME280;9221;42.646;23.380;2022-08-20T02:25:38;94197.19;;;24.43;61.43
3968;BME280;9221;42.646;23.380;2022-08-20T02:28:10;94142.56;;;24.30;61.46
3968;BME280;9221;42.646;23.380;2022-08-20T02:30:43;94160.72;;;24.57;61.14
3968;BME280;9221;42.646;23.380;2022-08-20T02:33:12;94098.44;;;24.37;60.44
3968;BME280;9221;42.646;23.380;2022-08-20T02:35:39;94152.75;;;24.62;60.60
3968;BME280;9221;42.646;23.380;2022-08-20T02:38:07;94180.34;;;24.36;61.23
3968;BME280;9221;42.646;23.380;2022-08-20T02:40:32;94123.72;;;23.96;62.25
3968;BME280;9221;42.646;23.380;2022-08-20T02:42:59;94151.22;;;24.15;62.82
3968;BME280;9221;42.646;23.380;2022-08-20T02:45:25;94145.44;;;24.24;62.20
3968;BME280;9221;42.646;23.380;2022-08-20T02:47:50;94144.16;;;24.31;62.31
3968;BME280;9221;42.646;23.380;2022-08-20T02:50:22;94156.06;;;24.53;61.46
3968;BME280;9221;42.646;23.380;2022-08-20T02:52:48;94150.44;;;24.54;61.34
3968;BME280;9221;42.646;23.380;2022-08-20T02:55:14;94150.56;;;24.25;61.95
3968;BME280;9221;42.646;23.380;2022-08-20T02:57:40;94173.56;;;24.33;62.27
3968;BME280;9221;42.646;23.380;2022-08-20T03:00:11;94170.47;;;24.24;62.36
3968;BME280;9221;42.646;23.380;2022-08-20T03:02:56;94106.97;;;23.94;62.53
3968;BME280;9221;42.646;23.380;2022-08-20T03:05:21;94104.03;;;23.96;62.17
3968;BME280;9221;42.646;23.380;2022-08-20T03:07:50;94170.44;;;24.58;61.53
3968;BME280;9221;42.646;23.380;2022-08-20T03:10:28;94193.19;;;24.62;61.44
3968;BME280;9221;42.646;23.380;2022-08-20T03:12:54;94199.63;;;24.44;62.27
3968;BME280;9221;42.646;23.380;2022-08-20T03:15:20;94127.56;;;24.01;62.65
3968;BME280;9221;42.646;23.380;2022-08-20T03:17:46;94169.16;;;24.44;61.95
3968;BME280;9221;42.646;23.380;2022-08-20T03:20:12;94157.75;;;24.20;62.93
3968;BME280;9221;42.646;23.380;2022-08-20T03:22:38;94146.94;;;23.86;64.34
3968;BME280;9221;42.646;23.380;2022-08-20T03:25:04;94155.59;;;23.71;64.77
3968;BME280;9221;42.646;23.380;2022-08-20T03:27:30;94179.84;;;23.42;66.15
3968;BME280;9221;42.646;23.380;2022-08-20T03:29:55;94193.00;;;23.55;66.33
3968;BME280;9221;42.646;23.380;2022-08-20T03:32:21;94118.63;;;23.20;66.16
3968;BME280;9221;42.646;23.380;2022-08-20T03:34:47;94177.81;;;23.49;66.53
3968;BME280;9221;42.646;23.380;2022-08-20T03:37:12;94192.56;;;23.46;66.70
3968;BME280;9221;42.646;23.380;2022-08-20T03:39:38;94199.44;;;23.54;66.06
3968;BME280;9221;42.646;23.380;2022-08-20T03:42:04;94174.34;;;23.65;65.53
3968;BME280;9221;42.646;23.380;2022-08-20T03:44:30;94105.72;;;23.22;65.63
3968;BME280;9221;42.646;23.380;2022-08-20T03:46:55;94173.69;;;23.58;65.75
3968;BME280;9221;42.646;23.380;2022-08-20T03:49:22;94180.06;;;23.69;65.72
3968;BME280;9221;42.646;23.380;2022-08-20T03:51:49;94146.56;;;23.48;64.90
3968;BME280;9221;42.646;23.380;2022-08-20T03:54:14;94192.78;;;23.74;65.32
3968;BME280;9221;42.646;23.380;2022-08-20T03:56:40;94183.53;;;23.98;64.49
3968;BME280;9221;42.646;23.380;2022-08-20T03:59:05;94181.09;;;23.97;64.04
3968;BME280;9221;42.646;23.380;2022-08-20T04:01:31;94141.72;;;23.79;64.56
3968;BME280;9221;42.646;23.380;2022-08-20T04:03:56;94183.72;;;24.09;64.10
3968;BME280;9221;42.646;23.380;2022-08-20T04:06:23;94160.69;;;24.01;64.39
3968;BME280;9221;42.646;23.380;2022-08-20T04:08:48;94189.25;;;24.19;63.93
3968;BME280;9221;42.646;23.380;2022-08-20T04:11:14;94160.97;;;23.71;64.61
3968;BME280;9221;42.646;23.380;2022-08-20T04:13:40;94090.53;;;23.28;65.26
3968;BME280;9221;42.646;23.380;2022-08-20T04:16:05;94183.16;;;23.78;65.68
3968;BME280;9221;42.646;23.380;2022-08-20T04:18:33;94129.72;;;23.24;66.62
3968;BME280;9221;42.646;23.380;2022-08-20T04:21:02;94140.81;;;23.27;66.91
3968;BME280;9221;42.646;23.380;2022-08-20T04:23:28;94187.41;;;23.74;66.86
3968;BME280;9221;42.646;23.380;2022-08-20T04:25:55;94188.78;;;23.88;65.68
3968;BME280;9221;42.646;23.380;2022-08-20T04:28:23;94139.72;;;23.57;65.88
3968;BME280;9221;42.646;23.380;2022-08-20T04:30:55;94128.81;;;23.47;66.13
3968;BME280;9221;42.646;23.380;2022-08-20T04:33:21;94191.69;;;23.87;65.94
3968;BME280;9221;42.646;23.380;2022-08-20T04:35:48;94141.28;;;23.53;66.11
3968;BME280;9221;42.646;23.380;2022-08-20T04:38:16;94185.81;;;23.90;66.07
3968;BME280;9221;42.646;23.380;2022-08-20T04:40:42;94130.44;;;23.65;65.37
3968;BME280;9221;42.646;23.380;2022-08-20T04:43:28;94137.94;;;23.63;65.72
3968;BME280;9221;42.646;23.380;2022-08-20T04:45:56;94155.56;;;23.99;65.31
3968;BME280;9221;42.646;23.380;2022-08-20T04:48:23;94200.03;;;24.19;65.28
3968;BME280;9221;42.646;23.380;2022-08-20T04:50:50;94220.19;;;23.99;65.86
3968;BME280;9221;42.646;23.380;2022-08-20T04:53:17;94151.16;;;23.64;66.46
3968;BME280;9221;42.646;23.380;2022-08-20T04:55:44;94159.97;;;23.77;66.12
3968;BME280;9221;42.646;23.380;2022-08-20T04:58:20;94155.59;;;23.71;66.69
3968;BME280;9221;42.646;23.380;2022-08-20T05:00:53;94192.97;;;23.84;67.29
3968;BME280;9221;42.646;23.380;2022-08-20T05:03:19;94221.44;;;24.09;67.33
3968;BME280;9221;42.646;23.380;2022-08-20T05:05:46;94091.47;;;23.68;65.89
3968;BME280;9221;42.646;23.380;2022-08-20T05:08:13;94171.16;;;24.14;65.30
3968;BME280;9221;42.646;23.380;2022-08-20T05:10:40;94138.16;;;23.90;66.65
3968;BME280;9221;42.646;23.380;2022-08-20T05:13:06;94192.28;;;24.06;66.91
3968;BME280;9221;42.646;23.380;2022-08-20T05:15:32;94183.03;;;24.02;66.68
3968;BME280;9221;42.646;23.380;2022-08-20T05:17:59;94180.63;;;24.17;66.48
3968;BME280;9221;42.646;23.380;2022-08-20T05:20:27;94166.56;;;24.15;66.06
3968;BME280;9221;42.646;23.380;2022-08-20T05:22:56;94168.38;;;24.26;66.09
3968;BME280;9221;42.646;23.380;2022-08-20T05:25:22;94190.63;;;24.56;65.44
3968;BME280;9221;42.646;23.380;2022-08-20T05:27:47;94201.81;;;24.64;65.35
3968;BME280;9221;42.646;23.380;2022-08-20T05:30:13;94197.91;;;24.55;65.81
3968;BME280;9221;42.646;23.380;2022-08-20T05:32:39;94166.63;;;24.54;65.86
3968;BME280;9221;42.646;23.380;2022-08-20T05:35:07;94128.94;;;24.59;64.35
3968;BME280;9221;42.646;23.380;2022-08-20T05:37:38;94136.63;;;24.90;63.95
3968;BME280;9221;42.646;23.380;2022-08-20T05:40:10;94096.22;;;24.73;63.27
3968;BME280;9221;42.646;23.380;2022-08-20T05:42:36;94169.56;;;24.92;64.16
3968;BME280;9221;42.646;23.380;2022-08-20T05:45:02;94152.19;;;25.05;63.59
3968;BME280;9221;42.646;23.380;2022-08-20T05:47:28;94139.13;;;25.41;63.52
3968;BME280;9221;42.646;23.380;2022-08-20T05:49:53;94152.41;;;25.75;62.66
3968;BME280;9221;42.646;23.380;2022-08-20T05:52:19;94199.06;;;25.92;62.74
3968;BME280;9221;42.646;23.380;2022-08-20T05:54:44;94144.84;;;25.72;62.52
3968;BME280;9221;42.646;23.380;2022-08-20T05:57:10;94087.84;;;25.18;62.56
3968;BME280;9221;42.646;23.380;2022-08-20T05:59:35;94179.75;;;25.78;63.05
3968;BME280;9221;42.646;23.380;2022-08-20T06:02:04;94128.25;;;25.58;62.36
3968;BME280;9221;42.646;23.380;2022-08-20T06:04:49;94203.94;;;25.95;62.85
3968;BME280;9221;42.646;23.380;2022-08-20T06:07:14;94159.94;;;26.32;61.73
3968;BME280;9221;42.646;23.380;2022-08-20T06:09:40;94154.16;;;26.56;60.67
3968;BME280;9221;42.646;23.380;2022-08-20T06:12:05;94197.44;;;26.56;59.68
3968;BME280;9221;42.646;23.380;2022-08-20T06:14:33;94160.78;;;26.76;59.19
3968;BME280;9221;42.646;23.380;2022-08-20T06:17:04;94114.81;;;26.81;58.57
3968;BME280;9221;42.646;23.380;2022-08-20T06:19:30;94166.94;;;27.19;58.19
3968;BME280;9221;42.646;23.380;2022-08-20T06:21:55;94172.41;;;27.34;57.70
3968;BME280;9221;42.646;23.380;2022-08-20T06:24:21;94198.22;;;27.52;57.09
3968;BME280;9221;42.646;23.380;2022-08-20T06:26:46;94177.94;;;27.70;57.08
3968;BME280;9221;42.646;23.380;2022-08-20T06:29:12;94182.59;;;27.80;57.28
3968;BME280;9221;42.646;23.380;2022-08-20T06:31:37;94185.28;;;27.85;56.40
3968;BME280;9221;42.646;23.380;2022-08-20T06:34:04;94138.94;;;27.66;55.84
3968;BME280;9221;42.646;23.380;2022-08-20T06:36:29;94169.84;;;27.96;55.20
3968;BME280;9221;42.646;23.380;2022-08-20T06:38:55;94175.06;;;28.13;54.58
3968;BME280;9221;42.646;23.380;2022-08-20T06:41:22;94181.84;;;28.26;54.95
3968;BME280;9221;42.646;23.380;2022-08-20T06:43:47;94142.50;;;27.93;54.05
3968;BME280;9221;42.646;23.380;2022-08-20T06:46:13;94175.31;;;28.37;54.53
3968;BME280;9221;42.646;23.380;2022-08-20T06:48:39;94189.72;;;28.43;54.02
3968;BME280;9221;42.646;23.380;2022-08-20T06:51:04;94165.81;;;28.35;53.97
3968;BME280;9221;42.646;23.380;2022-08-20T06:53:30;94130.31;;;28.11;54.23
3968;BME280;9221;42.646;23.380;2022-08-20T06:55:56;94198.38;;;28.35;53.83
3968;BME280;9221;42.646;23.380;2022-08-20T06:58:24;94046.75;;;27.25;53.74
3968;BME280;9221;42.646;23.380;2022-08-20T07:00:49;94161.72;;;27.91;54.29
3968;BME280;9221;42.646;23.380;2022-08-20T07:03:15;94115.94;;;27.79;54.67
3968;BME280;9221;42.646;23.380;2022-08-20T07:05:42;94161.75;;;28.17;53.77
3968;BME280;9221;42.646;23.380;2022-08-20T07:08:12;94140.63;;;28.03;53.71
3968;BME280;9221;42.646;23.380;2022-08-20T07:10:40;94109.13;;;27.92;53.53
3968;BME280;9221;42.646;23.380;2022-08-20T07:13:07;94111.31;;;27.69;53.91
3968;BME280;9221;42.646;23.380;2022-08-20T07:15:33;94149.84;;;28.08;54.14
3968;BME280;9221;42.646;23.380;2022-08-20T07:18:01;94128.13;;;27.97;54.43
3968;BME280;9221;42.646;23.380;2022-08-20T07:20:29;94156.28;;;28.58;53.58
3968;BME280;9221;42.646;23.380;2022-08-20T07:22:55;94148.69;;;28.76;52.53
3968;BME280;9221;42.646;23.380;2022-08-20T07:25:21;94100.47;;;28.21;52.93
3968;BME280;9221;42.646;23.380;2022-08-20T07:27:49;94114.53;;;28.54;53.06
3968;BME280;9221;42.646;23.380;2022-08-20T07:30:24;94140.03;;;28.79;52.38
3968;BME280;9221;42.646;23.380;2022-08-20T07:33:09;94105.91;;;28.31;52.55
3968;BME280;9221;42.646;23.380;2022-08-20T07:35:37;94128.63;;;28.66;53.10
3968;BME280;9221;42.646;23.380;2022-08-20T07:38:02;94130.53;;;28.71;52.39
3968;BME280;9221;42.646;23.380;2022-08-20T07:40:33;94082.50;;;28.66;52.03
3968;BME280;9221;42.646;23.380;2022-08-20T07:42:59;94096.03;;;28.87;51.38
3968;BME280;9221;42.646;23.380;2022-08-20T07:45:25;94136.34;;;29.25;50.91
3968;BME280;9221;42.646;23.380;2022-08-20T07:47:52;94157.75;;;29.36;49.35
3968;BME280;9221;42.646;23.380;2022-08-20T07:50:22;94134.38;;;29.35;50.08
3968;BME280;9221;42.646;23.380;2022-08-20T07:52:48;94127.78;;;29.52;48.78
3968;BME280;9221;42.646;23.380;2022-08-20T07:55:16;94104.22;;;29.77;49.25
3968;BME280;9221;42.646;23.380;2022-08-20T07:57:43;94090.81;;;30.25;47.70
3968;BME280;9221;42.646;23.380;2022-08-20T08:00:10;94131.03;;;30.33;46.73
3968;BME280;9221;42.646;23.380;2022-08-20T08:02:36;94098.78;;;29.87;48.02
3968;BME280;9221;42.646;23.380;2022-08-20T08:05:04;94081.66;;;30.16;46.92
3968;BME280;9221;42.646;23.380;2022-08-20T08:07:30;94083.75;;;30.53;46.83
3968;BME280;9221;42.646;23.380;2022-08-20T08:09:57;94125.78;;;31.20;45.97
3968;BME280;9221;42.646;23.380;2022-08-20T08:12:29;94134.63;;;31.74;44.88
3968;BME280;9221;42.646;23.380;2022-08-20T08:14:57;94139.22;;;32.12;44.74
3968;BME280;9221;42.646;23.380;2022-08-20T08:17:23;94119.91;;;32.27;43.00
3968;BME280;9221;42.646;23.380;2022-08-20T08:19:49;94142.13;;;32.20;43.84
3968;BME280;9221;42.646;23.380;2022-08-20T08:22:17;94135.34;;;31.99;44.32
3968;BME280;9221;42.646;23.380;2022-08-20T08:24:44;94119.31;;;31.59;44.62
3968;BME280;9221;42.646;23.380;2022-08-20T08:27:12;94038.59;;;31.20;44.62
3968;BME280;9221;42.646;23.380;2022-08-20T08:29:37;94075.72;;;31.92;43.95
3968;BME280;9221;42.646;23.380;2022-08-20T08:32:04;94130.16;;;31.97;43.29
3968;BME280;9221;42.646;23.380;2022-08-20T08:34:31;94112.59;;;31.89;44.09
3968;BME280;9221;42.646;23.380;2022-08-20T08:36:57;94151.47;;;32.33;43.91
3968;BME280;9221;42.646;23.380;2022-08-20T08:39:23;94142.75;;;32.31;42.88
3968;BME280;9221;42.646;23.380;2022-08-20T08:41:50;94073.94;;;32.01;43.67
3968;BME280;9221;42.646;23.380;2022-08-20T08:44:25;94130.78;;;33.07;41.79
3968;BME280;9221;42.646;23.380;2022-08-20T08:46:59;94057.91;;;32.14;42.35
3968;BME280;9221;42.646;23.380;2022-08-20T08:49:31;94104.88;;;32.77;42.15
3968;BME280;9221;42.646;23.380;2022-08-20T08:52:29;94130.56;;;33.03;41.20
3968;BME280;9221;42.646;23.380;2022-08-20T08:54:58;94106.28;;;33.30;41.66
3968;BME280;9221;42.646;23.380;2022-08-20T08:57:25;94088.91;;;33.62;39.99
3968;BME280;9221;42.646;23.380;2022-08-20T08:59:57;94113.34;;;34.18;39.30
3968;BME280;9221;42.646;23.380;2022-08-20T09:02:25;94041.94;;;33.83;39.26
3968;BME280;9221;42.646;23.380;2022-08-20T09:04:53;94040.69;;;34.12;39.00
3968;BME280;9221;42.646;23.380;2022-08-20T09:07:21;94076.31;;;33.11;39.60
3968;BME280;9221;42.646;23.380;2022-08-20T09:09:49;94103.03;;;33.14;40.54
3968;BME280;9221;42.646;23.380;2022-08-20T09:12:18;94071.50;;;33.58;40.15
3968;BME280;9221;42.646;23.380;2022-08-20T09:14:46;94081.69;;;34.57;38.96
3968;BME280;9221;42.646;23.380;2022-08-20T09:17:13;94105.81;;;35.18;37.29
3968;BME280;9221;42.646;23.380;2022-08-20T09:19:39;94077.44;;;35.14;37.72
3968;BME280;9221;42.646;23.380;2022-08-20T09:22:12;94078.94;;;34.88;37.28
3968;BME280;9221;42.646;23.380;2022-08-20T09:24:38;94051.34;;;34.45;36.91
3968;BME280;9221;42.646;23.380;2022-08-20T09:27:04;94041.31;;;33.86;37.85
3968;BME280;9221;42.646;23.380;2022-08-20T09:29:30;94042.06;;;34.23;37.01
3968;BME280;9221;42.646;23.380;2022-08-20T09:32:16;94076.72;;;34.99;36.52
3968;BME280;9221;42.646;23.380;2022-08-20T09:34:45;94082.84;;;34.96;36.42
3968;BME280;9221;42.646;23.380;2022-08-20T09:37:11;94045.69;;;35.30;35.56
3968;BME280;9221;42.646;23.380;2022-08-20T09:39:37;94034.44;;;35.58;35.43
3968;BME280;9221;42.646;23.380;2022-08-20T09:42:15;94072.69;;;36.16;33.90
3968;BME280;9221;42.646;23.380;2022-08-20T09:44:42;94076.38;;;36.37;34.12
3968;BME280;9221;42.646;23.380;2022-08-20T09:47:08;94076.88;;;36.22;33.44
3968;BME280;9221;42.646;23.380;2022-08-20T09:49:34;94084.28;;;35.42;35.15
3968;BME280;9221;42.646;23.380;2022-08-20T09:52:03;94061.59;;;35.02;35.67
3968;BME280;9221;42.646;23.380;2022-08-20T09:54:29;94061.41;;;35.73;35.13
3968;BME280;9221;42.646;23.380;2022-08-20T09:57:04;93957.31;;;35.33;34.88
3968;BME280;9221;42.646;23.380;2022-08-20T09:59:31;94055.88;;;36.91;33.66
3968;BME280;9221;42.646;23.380;2022-08-20T10:01:57;94021.97;;;37.38;31.89
3968;BME280;9221;42.646;23.380;2022-08-20T10:04:23;94080.50;;;38.10;31.91
3968;BME280;9221;42.646;23.380;2022-08-20T10:06:48;94069.09;;;38.00;31.10
3968;BME280;9221;42.646;23.380;2022-08-20T10:09:14;94072.84;;;37.74;31.70
3968;BME280;9221;42.646;23.380;2022-08-20T10:11:39;94074.19;;;37.89;32.30
3968;BME280;9221;42.646;23.380;2022-08-20T10:14:05;94057.47;;;37.73;30.85
3968;BME280;9221;42.646;23.380;2022-08-20T10:16:33;94071.69;;;36.94;31.01
3968;BME280;9221;42.646;23.380;2022-08-20T10:18:58;94085.31;;;37.29;31.15
3968;BME280;9221;42.646;23.380;2022-08-20T10:21:24;94073.91;;;37.39;31.41
3968;BME280;9221;42.646;23.380;2022-08-20T10:23:49;94019.25;;;37.71;30.45
3968;BME280;9221;42.646;23.380;2022-08-20T10:26:15;94058.00;;;38.88;30.45
3968;BME280;9221;42.646;23.380;2022-08-20T10:28:41;94012.06;;;38.80;28.19
3968;BME280;9221;42.646;23.380;2022-08-20T10:31:09;94006.94;;;39.43;28.50
3968;BME280;9221;42.646;23.380;2022-08-20T10:33:35;94048.47;;;40.16;27.97
3968;BME280;9221;42.646;23.380;2022-08-20T10:36:09;94061.88;;;40.14;27.69
3968;BME280;9221;42.646;23.380;2022-08-20T10:38:35;94037.91;;;39.77;27.49
3968;BME280;9221;42.646;23.380;2022-08-20T10:41:01;94060.31;;;39.88;28.03
3968;BME280;9221;42.646;23.380;2022-08-20T10:43:26;94015.47;;;39.01;29.59
3968;BME280;9221;42.646;23.380;2022-08-20T10:45:52;94043.31;;;38.96;28.70
3968;BME280;9221;42.646;23.380;2022-08-20T10:48:18;94027.88;;;39.32;28.45
3968;BME280;9221;42.646;23.380;2022-08-20T10:50:43;93987.00;;;39.63;28.42
3968;BME280;9221;42.646;23.380;2022-08-20T10:53:09;93994.56;;;39.00;28.54
3968;BME280;9221;42.646;23.380;2022-08-20T10:55:34;94004.69;;;38.96;28.84
3968;BME280;9221;42.646;23.380;2022-08-20T10:58:00;94022.16;;;39.25;28.38
3968;BME280;9221;42.646;23.380;2022-08-20T11:00:28;94004.44;;;39.01;28.78
3968;BME280;9221;42.646;23.380;2022-08-20T11:02:54;94019.22;;;38.14;30.39
3968;BME280;9221;42.646;23.380;2022-08-20T11:05:19;93997.31;;;39.13;28.71
3968;BME280;9221;42.646;23.380;2022-08-20T11:07:45;93979.41;;;38.94;28.27
3968;BME280;9221;42.646;23.380;2022-08-20T11:10:11;94026.81;;;39.49;28.27
3968;BME280;9221;42.646;23.380;2022-08-20T11:12:36;94011.06;;;39.62;28.31
3968;BME280;9221;42.646;23.380;2022-08-20T11:15:03;93991.81;;;39.25;28.30
3968;BME280;9221;42.646;23.380;2022-08-20T11:17:31;94034.72;;;38.52;29.20
3968;BME280;9221;42.646;23.380;2022-08-20T11:19:58;94024.28;;;38.12;28.73
3968;BME280;9221;42.646;23.380;2022-08-20T11:22:24;94005.16;;;37.94;29.83
3968;BME280;9221;42.646;23.380;2022-08-20T11:24:51;93963.88;;;37.39;29.20
3968;BME280;9221;42.646;23.380;2022-08-20T11:27:25;93970.00;;;37.15;29.86
3968;BME280;9221;42.646;23.380;2022-08-20T11:29:51;93975.41;;;37.33;29.47
3968;BME280;9221;42.646;23.380;2022-08-20T11:32:17;93944.81;;;37.34;30.02
3968;BME280;9221;42.646;23.380;2022-08-20T11:34:43;93933.25;;;37.62;28.86
3968;BME280;9221;42.646;23.380;2022-08-20T11:37:09;93950.16;;;37.52;28.84
3968;BME280;9221;42.646;23.380;2022-08-20T11:39:34;93939.81;;;38.16;28.39
3968;BME280;9221;42.646;23.380;2022-08-20T11:42:00;93980.72;;;38.38;28.02
3968;BME280;9221;42.646;23.380;2022-08-20T11:44:26;93967.44;;;38.40;28.82
3968;BME280;9221;42.646;23.380;2022-08-20T11:46:52;93954.03;;;38.18;29.16
3968;BME280;9221;42.646;23.380;2022-08-20T11:49:17;93972.44;;;38.26;28.48
3968;BME280;9221;42.646;23.380;2022-08-20T11:51:43;93930.13;;;37.85;28.53
3968;BME280;9221;42.646;23.380;2022-08-20T11:54:08;93973.66;;;38.50;27.77
3968;BME280;9221;42.646;23.380;2022-08-20T11:56:34;93975.03;;;38.93;27.22
3968;BME280;9221;42.646;23.380;2022-08-20T11:58:59;93972.63;;;39.57;26.16
3968;BME280;9221;42.646;23.380;2022-08-20T12:01:25;93932.25;;;39.93;24.60
3968;BME280;9221;42.646;23.380;2022-08-20T12:03:50;93960.25;;;40.07;24.24
3968;BME280;9221;42.646;23.380;2022-08-20T12:06:16;93986.03;;;39.42;24.96
3968;BME280;9221;42.646;23.380;2022-08-20T12:08:41;93922.22;;;38.79;26.38
3968;BME280;9221;42.646;23.380;2022-08-20T12:11:07;93951.13;;;38.35;26.77
3968;BME280;9221;42.646;23.380;2022-08-20T12:13:34;93954.97;;;37.55;27.52
3968;BME280;9221;42.646;23.380;2022-08-20T12:16:00;93901.88;;;36.70;28.41
3968;BME280;9221;42.646;23.380;2022-08-20T12:18:26;93921.63;;;35.86;29.84
3968;BME280;9221;42.646;23.380;2022-08-20T12:20:51;93965.19;;;35.96;30.12
3968;BME280;9221;42.646;23.380;2022-08-20T12:23:17;93923.09;;;35.31;30.11
3968;BME280;9221;42.646;23.380;2022-08-20T12:25:42;93958.13;;;35.60;30.01
3968;BME280;9221;42.646;23.380;2022-08-20T12:28:11;93988.75;;;35.62;29.60
3968;BME280;9221;42.646;23.380;2022-08-20T12:30:36;93988.13;;;35.65;29.94
3968;BME280;9221;42.646;23.380;2022-08-20T12:33:02;93978.44;;;35.41;31.61
3968;BME280;9221;42.646;23.380;2022-08-20T12:35:27;94012.75;;;34.64;38.60
3968;BME280;9221;42.646;23.380;2022-08-20T12:37:53;94038.56;;;33.13;48.51
3968;BME280;9221;42.646;23.380;2022-08-20T12:40:23;94020.84;;;32.27;54.25
3968;BME280;9221;42.646;23.380;2022-08-20T12:42:48;94023.28;;;30.81;61.22
3968;BME280;9221;42.646;23.380;2022-08-20T12:45:15;94040.84;;;29.47;65.51
3968;BME280;9221;42.646;23.380;2022-08-20T12:47:43;94056.00;;;29.58;67.14
3968;BME280;9221;42.646;23.380;2022-08-20T12:50:15;94040.81;;;29.52;65.45
3968;BME280;9221;42.646;23.380;2022-08-20T12:52:41;94035.22;;;29.38;65.69
3968;BME280;9221;42.646;23.380;2022-08-20T12:55:08;94036.47;;;29.51;65.89
3968;BME280;9221;42.646;23.380;2022-08-20T12:57:35;94030.38;;;29.69;67.19
3968;BME280;9221;42.646;23.380;2022-08-20T13:02:53;93905.06;;;29.42;69.62
3968;BME280;9221;42.646;23.380;2022-08-20T13:05:19;93919.41;;;29.47;70.53
3968;BME280;9221;42.646;23.380;2022-08-20T13:07:46;93970.81;;;28.33;73.77
3968;BME280;9221;42.646;23.380;2022-08-20T13:10:15;93945.25;;;28.50;70.97
3968;BME280;9221;42.646;23.380;2022-08-20T13:12:41;93906.22;;;28.46;70.58
3968;BME280;9221;42.646;23.380;2022-08-20T13:15:07;93827.41;;;27.61;71.52
3968;BME280;9221;42.646;23.380;2022-08-20T13:17:32;93963.09;;;28.72;70.94
3968;BME280;9221;42.646;23.380;2022-08-20T13:19:58;93929.75;;;29.06;71.92
3968;BME280;9221;42.646;23.380;2022-08-20T13:22:23;93908.19;;;29.19;72.05
3968;BME280;9221;42.646;23.380;2022-08-20T13:24:49;93977.06;;;29.74;75.10
3968;BME280;9221;42.646;23.380;2022-08-20T13:27:17;93927.59;;;29.42;79.08